sensor_id;sensor_type;location;lat;lon;timestamp;P1;durP1;ratioP1;P2;durP2;ratioP2
64022;SDS011;50264;52.088;5.296;2022-08-03T00:00:55;1999.9;;;609.21;;
64022;SDS011;50264;52.088;5.296;2022-08-03T00:04:28;1999.9;;;596.5;;
64022;SDS011;50264;52.088;5.296;2022-08-03T00:06:14;1999.9;;;570.0;;
64022;SDS011;50264;52.088;5.296;2022-08-03T00:08:01;1999.9;;;595.21;;
64022;SDS011;50264;52.088;5.296;2022-08-03T00:09:49;1999.9;;;584.9;;
64022;SDS011;50264;52.088;5.296;2022-08-03T00:11:35;1999.9;;;595.21;;
64022;SDS011;50264;52.088;5.296;2022-08-03T00:13:23;1999.9;;;616.6;;
64022;SDS011;50264;52.088;5.296;2022-08-03T00:16:57;1999.9;;;577.4;;
64022;SDS011;50264;52.088;5.296;2022-08-03T00:18:43;1999.9;;;603.1;;
64022;SDS011;50264;52.088;5.296;2022-08-03T00:20:30;1999.9;;;581.0;;
64022;SDS011;50264;52.088;5.296;2022-08-03T00:22:16;1999.9;;;604.21;;
64022;SDS011;50264;52.088;5.296;2022-08-03T00:24:03;1999.9;;;588.1;;
64022;SDS011;50264;52.088;5.296;2022-08-03T00:25:50;1999.9;;;602.21;;
64022;SDS011;50264;52.088;5.296;2022-08-03T00:29:23;1999.9;;;595.31;;
64022;SDS011;50264;52.088;5.296;2022-08-03T00:31:09;1999.9;;;587.9;;
64022;SDS011;50264;52.088;5.296;2022-08-03T00:32:55;1999.9;;;597.5;;
64022;SDS011;50264;52.088;5.296;2022-08-03T00:34:42;1999.9;;;613.6;;
64022;SDS011;50264;52.088;5.296;2022-08-03T00:36:29;1999.9;;;591.6;;
64022;SDS011;50264;52.088;5.296;2022-08-03T00:40:02;1999.9;;;613.21;;
64022;SDS011;50264;52.088;5.296;2022-08-03T00:41:49;1999.9;;;592.5;;
64022;SDS011;50264;52.088;5.296;2022-08-03T00:43:36;1999.9;;;599.81;;
64022;SDS011;50264;52.088;5.296;2022-08-03T00:45:23;1999.9;;;999.9;;
64022;SDS011;50264;52.088;5.296;2022-08-03T00:47:12;1999.9;;;572.71;;
64022;SDS011;50264;52.088;5.296;2022-08-03T00:48:59;1999.9;;;544.5;;
64022;SDS011;50264;52.088;5.296;2022-08-03T00:52:33;1999.9;;;598.81;;
64022;SDS011;50264;52.088;5.296;2022-08-03T00:54:20;1999.9;;;618.0;;
64022;SDS011;50264;52.088;5.296;2022-08-03T00:56:11;1999.9;;;600.31;;
64022;SDS011;50264;52.088;5.296;2022-08-03T00:58:00;1999.9;;;601.4;;
64022;SDS011;50264;52.088;5.296;2022-08-03T00:59:48;1999.9;;;562.71;;
64022;SDS011;50264;52.088;5.296;2022-08-03T01:01:34;1999.9;;;599.1;;
64022;SDS011;50264;52.088;5.296;2022-08-03T01:05:06;1999.9;;;999.9;;
64022;SDS011;50264;52.088;5.296;2022-08-03T01:06:56;1999.9;;;581.6;;
64022;SDS011;50264;52.088;5.296;2022-08-03T01:08:51;1999.9;;;609.71;;
64022;SDS011;50264;52.088;5.296;2022-08-03T01:10:46;1999.9;;;608.31;;
64022;SDS011;50264;52.088;5.296;2022-08-03T01:12:51;1999.9;;;620.0;;
64022;SDS011;50264;52.088;5.296;2022-08-03T01:14:49;1999.9;;;596.81;;
64022;SDS011;50264;52.088;5.296;2022-08-03T01:16:48;1999.9;;;611.4;;
64022;SDS011;50264;52.088;5.296;2022-08-03T01:18:44;1999.9;;;587.4;;
64022;SDS011;50264;52.088;5.296;2022-08-03T01:20:39;1999.9;;;610.81;;
64022;SDS011;50264;52.088;5.296;2022-08-03T01:22:38;1999.9;;;591.31;;
64022;SDS011;50264;52.088;5.296;2022-08-03T01:24:49;1999.9;;;590.71;;
64022;SDS011;50264;52.088;5.296;2022-08-03T01:26:50;1999.9;;;612.1;;
64022;SDS011;50264;52.088;5.296;2022-08-03T01:28:56;1999.9;;;567.6;;
64022;SDS011;50264;52.088;5.296;2022-08-03T01:30:49;1999.9;;;564.6;;
64022;SDS011;50264;52.088;5.296;2022-08-03T01:34:40;1999.9;;;571.71;;
64022;SDS011;50264;52.088;5.296;2022-08-03T01:36:35;1999.9;;;603.71;;
64022;SDS011;50264;52.088;5.296;2022-08-03T01:38:26;1999.9;;;546.71;;
64022;SDS011;50264;52.088;5.296;2022-08-03T01:40:18;1999.9;;;598.6;;
64022;SDS011;50264;52.088;5.296;2022-08-03T01:42:07;1999.9;;;606.81;;
64022;SDS011;50264;52.088;5.296;2022-08-03T01:43:56;1999.9;;;999.9;;
64022;SDS011;50264;52.088;5.296;2022-08-03T01:45:45;1999.9;;;599.31;;
64022;SDS011;50264;52.088;5.296;2022-08-03T01:47:34;1999.9;;;612.9;;
64022;SDS011;50264;52.088;5.296;2022-08-03T01:51:10;1999.9;;;612.9;;
64022;SDS011;50264;52.088;5.296;2022-08-03T01:52:58;1999.9;;;587.71;;
64022;SDS011;50264;52.088;5.296;2022-08-03T01:54:48;1999.9;;;579.9;;
64022;SDS011;50264;52.088;5.296;2022-08-03T01:56:36;1999.9;;;599.71;;
64022;SDS011;50264;52.088;5.296;2022-08-03T01:58:25;1999.9;;;626.31;;
64022;SDS011;50264;52.088;5.296;2022-08-03T02:00:15;1999.9;;;612.71;;
64022;SDS011;50264;52.088;5.296;2022-08-03T02:02:04;1999.9;;;590.4;;
64022;SDS011;50264;52.088;5.296;2022-08-03T02:05:42;1999.9;;;583.9;;
64022;SDS011;50264;52.088;5.296;2022-08-03T02:07:31;1999.9;;;618.71;;
64022;SDS011;50264;52.088;5.296;2022-08-03T02:09:20;1999.9;;;594.31;;
64022;SDS011;50264;52.088;5.296;2022-08-03T02:11:08;1999.9;;;552.81;;
64022;SDS011;50264;52.088;5.296;2022-08-03T02:12:55;1999.9;;;605.0;;
64022;SDS011;50264;52.088;5.296;2022-08-03T02:14:46;1999.9;;;601.31;;
64022;SDS011;50264;52.088;5.296;2022-08-03T02:18:21;1999.9;;;592.81;;
64022;SDS011;50264;52.088;5.296;2022-08-03T02:20:11;1999.9;;;591.6;;
64022;SDS011;50264;52.088;5.296;2022-08-03T02:22:00;1999.9;;;580.1;;
64022;SDS011;50264;52.088;5.296;2022-08-03T02:23:48;1999.9;;;603.81;;
64022;SDS011;50264;52.088;5.296;2022-08-03T02:25:37;1999.9;;;622.5;;
64022;SDS011;50264;52.088;5.296;2022-08-03T02:27:35;1999.9;;;572.1;;
64022;SDS011;50264;52.088;5.296;2022-08-03T02:29:28;1999.9;;;577.1;;
64022;SDS011;50264;52.088;5.296;2022-08-03T02:33:14;1999.9;;;587.4;;
64022;SDS011;50264;52.088;5.296;2022-08-03T02:35:08;1999.9;;;601.31;;
64022;SDS011;50264;52.088;5.296;2022-08-03T02:36:59;1999.9;;;569.9;;
64022;SDS011;50264;52.088;5.296;2022-08-03T02:38:47;1999.9;;;598.71;;
64022;SDS011;50264;52.088;5.296;2022-08-03T02:40:37;1999.9;;;599.31;;
64022;SDS011;50264;52.088;5.296;2022-08-03T02:42:31;1999.9;;;562.6;;
64022;SDS011;50264;52.088;5.296;2022-08-03T02:44:21;1999.9;;;606.4;;
64022;SDS011;50264;52.088;5.296;2022-08-03T02:46:11;1999.9;;;601.71;;
64022;SDS011;50264;52.088;5.296;2022-08-03T02:49:51;1999.9;;;536.4;;
64022;SDS011;50264;52.088;5.296;2022-08-03T02:51:41;1999.9;;;612.4;;
64022;SDS011;50264;52.088;5.296;2022-08-03T02:53:29;1999.9;;;592.4;;
64022;SDS011;50264;52.088;5.296;2022-08-03T02:55:19;1999.9;;;604.21;;
64022;SDS011;50264;52.088;5.296;2022-08-03T02:57:09;1999.9;;;571.1;;
64022;SDS011;50264;52.088;5.296;2022-08-03T02:58:59;1999.9;;;999.9;;
64022;SDS011;50264;52.088;5.296;2022-08-03T03:00:46;1999.9;;;580.71;;
64022;SDS011;50264;52.088;5.296;2022-08-03T03:04:23;1999.9;;;585.71;;
64022;SDS011;50264;52.088;5.296;2022-08-03T03:06:12;1999.9;;;577.6;;
64022;SDS011;50264;52.088;5.296;2022-08-03T03:08:01;1999.9;;;595.4;;
64022;SDS011;50264;52.088;5.296;2022-08-03T03:09:48;1999.9;;;587.21;;
64022;SDS011;50264;52.088;5.296;2022-08-03T03:11:37;1999.9;;;625.31;;
64022;SDS011;50264;52.088;5.296;2022-08-03T03:13:26;1999.9;;;602.31;;
64022;SDS011;50264;52.088;5.296;2022-08-03T03:17:00;1999.9;;;611.0;;
64022;SDS011;50264;52.088;5.296;2022-08-03T03:18:48;1999.9;;;543.5;;
64022;SDS011;50264;52.088;5.296;2022-08-03T03:20:35;1999.9;;;608.21;;
64022;SDS011;50264;52.088;5.296;2022-08-03T03:22:24;1999.9;;;563.6;;
64022;SDS011;50264;52.088;5.296;2022-08-03T03:24:13;1999.9;;;567.4;;
64022;SDS011;50264;52.088;5.296;2022-08-03T03:26:01;1999.9;;;574.1;;
64022;SDS011;50264;52.088;5.296;2022-08-03T03:29:35;1999.9;;;572.1;;
64022;SDS011;50264;52.088;5.296;2022-08-03T03:31:21;1999.9;;;605.6;;
64022;SDS011;50264;52.088;5.296;2022-08-03T03:33:08;1999.9;;;611.1;;
64022;SDS011;50264;52.088;5.296;2022-08-03T03:34:56;1999.9;;;583.31;;
64022;SDS011;50264;52.088;5.296;2022-08-03T03:36:45;1999.9;;;566.9;;
64022;SDS011;50264;52.088;5.296;2022-08-03T03:38:32;1999.9;;;596.81;;
64022;SDS011;50264;52.088;5.296;2022-08-03T03:42:07;1999.9;;;593.81;;
64022;SDS011;50264;52.088;5.296;2022-08-03T03:43:54;1999.9;;;595.31;;
64022;SDS011;50264;52.088;5.296;2022-08-03T03:45:40;1999.9;;;589.6;;
64022;SDS011;50264;52.088;5.296;2022-08-03T03:47:28;1999.9;;;606.21;;
64022;SDS011;50264;52.088;5.296;2022-08-03T03:49:15;1999.9;;;579.31;;
64022;SDS011;50264;52.088;5.296;2022-08-03T03:51:02;1999.9;;;598.31;;
64022;SDS011;50264;52.088;5.296;2022-08-03T03:54:38;1999.9;;;574.9;;
64022;SDS011;50264;52.088;5.296;2022-08-03T03:56:25;1999.9;;;567.5;;
64022;SDS011;50264;52.088;5.296;2022-08-03T03:58:14;1999.9;;;574.1;;
64022;SDS011;50264;52.088;5.296;2022-08-03T03:59:59;1999.9;;;559.31;;
64022;SDS011;50264;52.088;5.296;2022-08-03T04:01:47;1999.9;;;564.9;;
64022;SDS011;50264;52.088;5.296;2022-08-03T04:03:33;1999.9;;;586.6;;
64022;SDS011;50264;52.088;5.296;2022-08-03T04:11:25;1999.9;;;592.5;;
64022;SDS011;50264;52.088;5.296;2022-08-03T04:13:15;1999.9;;;570.6;;
64022;SDS011;50264;52.088;5.296;2022-08-03T04:15:03;1999.9;;;569.9;;
64022;SDS011;50264;52.088;5.296;2022-08-03T04:16:52;1999.9;;;555.9;;
64022;SDS011;50264;52.088;5.296;2022-08-03T04:18:43;1999.9;;;604.9;;
64022;SDS011;50264;52.088;5.296;2022-08-03T04:20:35;1999.9;;;581.71;;
64022;SDS011;50264;52.088;5.296;2022-08-03T04:22:26;1999.9;;;580.0;;
64022;SDS011;50264;52.088;5.296;2022-08-03T04:26:05;1999.9;;;588.5;;
64022;SDS011;50264;52.088;5.296;2022-08-03T04:27:58;1999.9;;;596.9;;
64022;SDS011;50264;52.088;5.296;2022-08-03T04:29:46;1999.9;;;594.0;;
64022;SDS011;50264;52.088;5.296;2022-08-03T04:31:37;1999.9;;;559.6;;
64022;SDS011;50264;52.088;5.296;2022-08-03T04:33:26;1999.9;;;596.6;;
64022;SDS011;50264;52.088;5.296;2022-08-03T04:35:17;1999.9;;;611.21;;
64022;SDS011;50264;52.088;5.296;2022-08-03T04:37:08;1999.9;;;562.0;;
64022;SDS011;50264;52.088;5.296;2022-08-03T04:39:09;1999.9;;;546.6;;
64022;SDS011;50264;52.088;5.296;2022-08-03T04:42:49;1999.9;;;577.81;;
64022;SDS011;50264;52.088;5.296;2022-08-03T04:44:40;1999.9;;;566.1;;
64022;SDS011;50264;52.088;5.296;2022-08-03T04:46:31;1999.9;;;587.71;;
64022;SDS011;50264;52.088;5.296;2022-08-03T04:48:22;1999.9;;;575.4;;
64022;SDS011;50264;52.088;5.296;2022-08-03T04:50:09;1999.9;;;999.9;;
64022;SDS011;50264;52.088;5.296;2022-08-03T04:51:56;1999.9;;;606.21;;
64022;SDS011;50264;52.088;5.296;2022-08-03T04:53:43;1999.9;;;570.71;;
64022;SDS011;50264;52.088;5.296;2022-08-03T04:57:19;1999.9;;;598.31;;
64022;SDS011;50264;52.088;5.296;2022-08-03T04:59:06;1999.9;;;562.21;;
64022;SDS011;50264;52.088;5.296;2022-08-03T05:00:52;1999.9;;;580.4;;
64022;SDS011;50264;52.088;5.296;2022-08-03T05:02:39;1999.9;;;578.5;;
64022;SDS011;50264;52.088;5.296;2022-08-03T05:04:25;1999.9;;;566.9;;
64022;SDS011;50264;52.088;5.296;2022-08-03T05:06:11;1999.9;;;555.71;;
64022;SDS011;50264;52.088;5.296;2022-08-03T05:09:44;1999.9;;;535.9;;
64022;SDS011;50264;52.088;5.296;2022-08-03T05:11:31;1999.9;;;555.9;;
64022;SDS011;50264;52.088;5.296;2022-08-03T05:13:17;1999.9;;;578.1;;
64022;SDS011;50264;52.088;5.296;2022-08-03T05:15:04;1999.9;;;999.9;;
64022;SDS011;50264;52.088;5.296;2022-08-03T05:16:52;1999.9;;;999.9;;
64022;SDS011;50264;52.088;5.296;2022-08-03T05:20:25;1999.9;;;526.1;;
64022;SDS011;50264;52.088;5.296;2022-08-03T05:22:12;1999.9;;;587.5;;
64022;SDS011;50264;52.088;5.296;2022-08-03T05:23:58;1999.9;;;588.9;;
64022;SDS011;50264;52.088;5.296;2022-08-03T05:25:44;1999.9;;;568.0;;
64022;SDS011;50264;52.088;5.296;2022-08-03T05:27:31;1999.9;;;569.81;;
64022;SDS011;50264;52.088;5.296;2022-08-03T05:29:17;1999.9;;;584.21;;
64022;SDS011;50264;52.088;5.296;2022-08-03T05:32:51;1999.9;;;561.21;;
64022;SDS011;50264;52.088;5.296;2022-08-03T05:34:38;1999.9;;;570.0;;
64022;SDS011;50264;52.088;5.296;2022-08-03T05:36:24;1999.9;;;545.0;;
64022;SDS011;50264;52.088;5.296;2022-08-03T05:38:11;1999.9;;;571.5;;
64022;SDS011;50264;52.088;5.296;2022-08-03T05:39:57;1999.9;;;581.4;;
64022;SDS011;50264;52.088;5.296;2022-08-03T05:41:43;1999.9;;;590.5;;
64022;SDS011;50264;52.088;5.296;2022-08-03T05:45:18;1999.9;;;558.31;;
64022;SDS011;50264;52.088;5.296;2022-08-03T05:47:05;1999.9;;;592.6;;
64022;SDS011;50264;52.088;5.296;2022-08-03T05:48:51;1999.9;;;557.81;;
64022;SDS011;50264;52.088;5.296;2022-08-03T05:50:37;1999.9;;;540.6;;
64022;SDS011;50264;52.088;5.296;2022-08-03T05:52:23;1999.9;;;561.71;;
64022;SDS011;50264;52.088;5.296;2022-08-03T05:55:56;1999.9;;;572.1;;
64022;SDS011;50264;52.088;5.296;2022-08-03T05:57:44;1999.9;;;573.5;;
64022;SDS011;50264;52.088;5.296;2022-08-03T05:59:31;1999.9;;;580.1;;
64022;SDS011;50264;52.088;5.296;2022-08-03T06:01:17;1999.9;;;578.81;;
64022;SDS011;50264;52.088;5.296;2022-08-03T06:03:05;1999.9;;;548.4;;
64022;SDS011;50264;52.088;5.296;2022-08-03T06:04:51;1999.9;;;568.0;;
64022;SDS011;50264;52.088;5.296;2022-08-03T06:08:25;1999.9;;;573.6;;
64022;SDS011;50264;52.088;5.296;2022-08-03T06:10:11;1999.9;;;586.5;;
64022;SDS011;50264;52.088;5.296;2022-08-03T06:11:57;1999.9;;;570.71;;
64022;SDS011;50264;52.088;5.296;2022-08-03T06:13:43;1999.9;;;999.9;;
64022;SDS011;50264;52.088;5.296;2022-08-03T06:15:29;1999.9;;;589.71;;
64022;SDS011;50264;52.088;5.296;2022-08-03T06:17:18;1999.9;;;576.21;;
64022;SDS011;50264;52.088;5.296;2022-08-03T06:20:52;1999.9;;;548.1;;
64022;SDS011;50264;52.088;5.296;2022-08-03T06:22:39;1999.9;;;526.3;;
64022;SDS011;50264;52.088;5.296;2022-08-03T06:24:25;1999.9;;;613.4;;
64022;SDS011;50264;52.088;5.296;2022-08-03T06:26:12;1999.9;;;559.6;;
64022;SDS011;50264;52.088;5.296;2022-08-03T06:27:59;1999.9;;;533.8;;
64022;SDS011;50264;52.088;5.296;2022-08-03T06:31:32;1999.9;;;561.6;;
64022;SDS011;50264;52.088;5.296;2022-08-03T06:33:18;1999.9;;;601.1;;
64022;SDS011;50264;52.088;5.296;2022-08-03T06:35:05;1999.9;;;588.5;;
64022;SDS011;50264;52.088;5.296;2022-08-03T06:36:53;1999.9;;;617.1;;
64022;SDS011;50264;52.088;5.296;2022-08-03T06:38:39;1999.9;;;580.71;;
64022;SDS011;50264;52.088;5.296;2022-08-03T06:40:28;1999.9;;;564.5;;
64022;SDS011;50264;52.088;5.296;2022-08-03T06:44:02;1999.9;;;592.21;;
64022;SDS011;50264;52.088;5.296;2022-08-03T06:45:49;1999.9;;;629.31;;
64022;SDS011;50264;52.088;5.296;2022-08-03T06:47:35;1999.9;;;575.1;;
64022;SDS011;50264;52.088;5.296;2022-08-03T06:49:23;1999.9;;;532.5;;
64022;SDS011;50264;52.088;5.296;2022-08-03T06:51:09;1999.9;;;568.71;;
64022;SDS011;50264;52.088;5.296;2022-08-03T06:52:57;1999.9;;;595.6;;
64022;SDS011;50264;52.088;5.296;2022-08-03T06:56:30;1999.9;;;587.71;;
64022;SDS011;50264;52.088;5.296;2022-08-03T06:58:16;1999.9;;;577.1;;
64022;SDS011;50264;52.088;5.296;2022-08-03T07:00:03;1999.9;;;580.81;;
64022;SDS011;50264;52.088;5.296;2022-08-03T07:01:50;1999.9;;;572.31;;
64022;SDS011;50264;52.088;5.296;2022-08-03T07:03:37;1999.9;;;564.71;;
64022;SDS011;50264;52.088;5.296;2022-08-03T07:07:10;1999.9;;;589.21;;
64022;SDS011;50264;52.088;5.296;2022-08-03T07:08:56;1999.9;;;573.1;;
64022;SDS011;50264;52.088;5.296;2022-08-03T07:10:42;1999.9;;;999.9;;
64022;SDS011;50264;52.088;5.296;2022-08-03T07:12:30;1999.9;;;532.5;;
64022;SDS011;50264;52.088;5.296;2022-08-03T07:14:17;1999.9;;;556.1;;
64022;SDS011;50264;52.088;5.296;2022-08-03T07:16:03;1999.9;;;581.1;;
64022;SDS011;50264;52.088;5.296;2022-08-03T07:19:36;1999.9;;;573.21;;
64022;SDS011;50264;52.088;5.296;2022-08-03T07:21:23;1999.9;;;608.4;;
64022;SDS011;50264;52.088;5.296;2022-08-03T07:23:10;1999.9;;;594.4;;
64022;SDS011;50264;52.088;5.296;2022-08-03T07:24:56;1999.9;;;632.4;;
64022;SDS011;50264;52.088;5.296;2022-08-03T07:26:43;1999.9;;;643.1;;
64022;SDS011;50264;52.088;5.296;2022-08-03T07:28:29;1999.9;;;586.1;;
64022;SDS011;50264;52.088;5.296;2022-08-03T07:32:03;1999.9;;;617.71;;
64022;SDS011;50264;52.088;5.296;2022-08-03T07:33:51;1999.9;;;629.21;;
64022;SDS011;50264;52.088;5.296;2022-08-03T07:35:38;1999.9;;;589.1;;
64022;SDS011;50264;52.088;5.296;2022-08-03T07:37:24;1999.9;;;618.31;;
64022;SDS011;50264;52.088;5.296;2022-08-03T07:39:11;1999.9;;;662.1;;
64022;SDS011;50264;52.088;5.296;2022-08-03T07:40:58;1999.9;;;650.6;;
64022;SDS011;50264;52.088;5.296;2022-08-03T07:44:30;1999.9;;;637.4;;
64022;SDS011;50264;52.088;5.296;2022-08-03T07:46:18;1999.9;;;999.9;;
64022;SDS011;50264;52.088;5.296;2022-08-03T07:48:04;1999.9;;;623.5;;
64022;SDS011;50264;52.088;5.296;2022-08-03T07:49:50;1999.9;;;652.21;;
64022;SDS011;50264;52.088;5.296;2022-08-03T07:51:37;1999.9;;;648.71;;
64022;SDS011;50264;52.088;5.296;2022-08-03T07:55:11;1999.9;;;677.3;;
64022;SDS011;50264;52.088;5.296;2022-08-03T07:56:58;1999.9;;;695.2;;
64022;SDS011;50264;52.088;5.296;2022-08-03T07:58:45;1999.9;;;663.3;;
64022;SDS011;50264;52.088;5.296;2022-08-03T08:00:31;1999.9;;;655.9;;
64022;SDS011;50264;52.088;5.296;2022-08-03T08:02:18;1999.9;;;681.0;;
64022;SDS011;50264;52.088;5.296;2022-08-03T08:04:05;1999.9;;;641.1;;
64022;SDS011;50264;52.088;5.296;2022-08-03T08:07:39;1999.9;;;680.1;;
64022;SDS011;50264;52.088;5.296;2022-08-03T08:09:26;1999.9;;;699.6;;
64022;SDS011;50264;52.088;5.296;2022-08-03T08:11:13;1999.9;;;664.8;;
64022;SDS011;50264;52.088;5.296;2022-08-03T08:12:59;1999.9;;;690.8;;
64022;SDS011;50264;52.088;5.296;2022-08-03T08:14:46;1999.9;;;684.3;;
64022;SDS011;50264;52.088;5.296;2022-08-03T08:16:32;1999.9;;;677.8;;
64022;SDS011;50264;52.088;5.296;2022-08-03T08:20:05;1999.9;;;672.6;;
64022;SDS011;50264;52.088;5.296;2022-08-03T08:21:53;1999.9;;;693.8;;
64022;SDS011;50264;52.088;5.296;2022-08-03T08:23:39;1999.9;;;682.2;;
64022;SDS011;50264;52.088;5.296;2022-08-03T08:25:25;1999.9;;;698.4;;
64022;SDS011;50264;52.088;5.296;2022-08-03T08:27:12;1999.9;;;698.1;;
64022;SDS011;50264;52.088;5.296;2022-08-03T08:30:46;1999.9;;;690.3;;
64022;SDS011;50264;52.088;5.296;2022-08-03T08:32:36;1999.9;;;689.0;;
64022;SDS011;50264;52.088;5.296;2022-08-03T08:34:22;1999.9;;;688.8;;
64022;SDS011;50264;52.088;5.296;2022-08-03T08:36:08;1999.9;;;711.6;;
64022;SDS011;50264;52.088;5.296;2022-08-03T08:37:54;1999.9;;;691.2;;
64022;SDS011;50264;52.088;5.296;2022-08-03T08:39:40;1999.9;;;686.2;;
64022;SDS011;50264;52.088;5.296;2022-08-03T08:43:14;1999.9;;;669.0;;
64022;SDS011;50264;52.088;5.296;2022-08-03T08:45:00;1999.9;;;671.1;;
64022;SDS011;50264;52.088;5.296;2022-08-03T08:46:48;1999.9;;;663.9;;
64022;SDS011;50264;52.088;5.296;2022-08-03T08:48:39;1999.9;;;697.7;;
64022;SDS011;50264;52.088;5.296;2022-08-03T08:50:28;1999.9;;;718.6;;
64022;SDS011;50264;52.088;5.296;2022-08-03T08:52:16;1999.9;;;701.8;;
64022;SDS011;50264;52.088;5.296;2022-08-03T08:55:57;1999.9;;;687.6;;
64022;SDS011;50264;52.088;5.296;2022-08-03T08:57:46;1999.9;;;701.6;;
64022;SDS011;50264;52.088;5.296;2022-08-03T08:59:34;1999.9;;;684.3;;
64022;SDS011;50264;52.088;5.296;2022-08-03T09:01:21;1999.9;;;684.3;;
64022;SDS011;50264;52.088;5.296;2022-08-03T09:03:08;1999.9;;;707.2;;
64022;SDS011;50264;52.088;5.296;2022-08-03T09:04:55;1999.9;;;683.3;;
64022;SDS011;50264;52.088;5.296;2022-08-03T09:08:30;1999.9;;;721.8;;
64022;SDS011;50264;52.088;5.296;2022-08-03T09:10:18;1999.9;;;684.8;;
64022;SDS011;50264;52.088;5.296;2022-08-03T09:12:06;1999.9;;;674.9;;
64022;SDS011;50264;52.088;5.296;2022-08-03T09:13:53;1999.9;;;708.6;;
64022;SDS011;50264;52.088;5.296;2022-08-03T09:15:41;1999.9;;;689.0;;
64022;SDS011;50264;52.088;5.296;2022-08-03T09:17:38;1999.9;;;682.7;;
64022;SDS011;50264;52.088;5.296;2022-08-03T09:19:25;1999.9;;;680.1;;
64022;SDS011;50264;52.088;5.296;2022-08-03T09:23:04;1999.9;;;701.6;;
64022;SDS011;50264;52.088;5.296;2022-08-03T09:24:55;1999.9;;;695.3;;
64022;SDS011;50264;52.088;5.296;2022-08-03T09:26:48;1999.9;;;673.8;;
64022;SDS011;50264;52.088;5.296;2022-08-03T09:28:35;1999.9;;;699.9;;
64022;SDS011;50264;52.088;5.296;2022-08-03T09:30:22;1999.9;;;694.4;;
64022;SDS011;50264;52.088;5.296;2022-08-03T09:32:08;1999.9;;;695.7;;
64022;SDS011;50264;52.088;5.296;2022-08-03T09:34:00;1999.9;;;708.6;;
64022;SDS011;50264;52.088;5.296;2022-08-03T09:37:36;1999.9;;;683.4;;
64022;SDS011;50264;52.088;5.296;2022-08-03T09:39:24;1999.9;;;706.6;;
64022;SDS011;50264;52.088;5.296;2022-08-03T09:41:16;1999.9;;;705.5;;
64022;SDS011;50264;52.088;5.296;2022-08-03T09:43:07;1999.9;;;676.9;;
64022;SDS011;50264;52.088;5.296;2022-08-03T09:44:54;1999.9;;;700.5;;
64022;SDS011;50264;52.088;5.296;2022-08-03T09:46:48;1999.9;;;712.1;;
64022;SDS011;50264;52.088;5.296;2022-08-03T09:48:36;1999.9;;;685.2;;
64022;SDS011;50264;52.088;5.296;2022-08-03T09:52:12;1999.9;;;688.3;;
64022;SDS011;50264;52.088;5.296;2022-08-03T09:54:03;1999.9;;;727.6;;
64022;SDS011;50264;52.088;5.296;2022-08-03T09:55:52;1999.9;;;733.7;;
64022;SDS011;50264;52.088;5.296;2022-08-03T09:57:44;1999.9;;;717.6;;
64022;SDS011;50264;52.088;5.296;2022-08-03T09:59:31;1999.9;;;662.7;;
64022;SDS011;50264;52.088;5.296;2022-08-03T10:01:18;1999.9;;;623.6;;
64022;SDS011;50264;52.088;5.296;2022-08-03T10:04:52;1999.9;;;627.71;;
64022;SDS011;50264;52.088;5.296;2022-08-03T10:06:39;1999.9;;;999.9;;
64022;SDS011;50264;52.088;5.296;2022-08-03T10:08:25;1999.9;;;574.71;;
64022;SDS011;50264;52.088;5.296;2022-08-03T10:10:12;1999.9;;;530.0;;
64022;SDS011;50264;52.088;5.296;2022-08-03T10:12:08;1999.9;;;510.4;;
64022;SDS011;50264;52.088;5.296;2022-08-03T10:13:57;1999.9;;;592.0;;
64022;SDS011;50264;52.088;5.296;2022-08-03T10:17:30;1999.9;;;574.81;;
64022;SDS011;50264;52.088;5.296;2022-08-03T10:19:18;1999.9;;;588.6;;
64022;SDS011;50264;52.088;5.296;2022-08-03T10:21:06;1999.9;;;623.1;;
64022;SDS011;50264;52.088;5.296;2022-08-03T10:22:56;1999.9;;;489.1;;
64022;SDS011;50264;52.088;5.296;2022-08-03T10:24:45;1999.9;;;468.3;;
64022;SDS011;50264;52.088;5.296;2022-08-03T10:26:40;1999.9;;;456.7;;
64022;SDS011;50264;52.088;5.296;2022-08-03T10:28:32;12.5;;;4.0;;
64022;SDS011;50264;52.088;5.296;2022-08-03T10:32:11;17.7;;;4.0;;
64022;SDS011;50264;52.088;5.296;2022-08-03T10:34:14;15.1;;;3.7;;
64022;SDS011;50264;52.088;5.296;2022-08-03T10:36:07;15.1;;;3.7;;
64022;SDS011;50264;52.088;5.296;2022-08-03T10:37:57;18.3;;;3.7;;
64022;SDS011;50264;52.088;5.296;2022-08-03T10:39:54;18.41;;;4.0;;
64022;SDS011;50264;52.088;5.296;2022-08-03T10:41:45;17.7;;;4.2;;
64022;SDS011;50264;52.088;5.296;2022-08-03T10:43:35;14.7;;;3.9;;
64022;SDS011;50264;52.088;5.296;2022-08-03T10:45:30;11.0;;;3.5;;
64022;SDS011;50264;52.088;5.296;2022-08-03T10:47:21;19.7;;;3.2;;
64022;SDS011;50264;52.088;5.296;2022-08-03T10:50:59;16.5;;;3.5;;
64022;SDS011;50264;52.088;5.296;2022-08-03T10:52:53;15.1;;;4.1;;
64022;SDS011;50264;52.088;5.296;2022-08-03T10:57:42;17.91;;;3.1;;
64022;SDS011;50264;52.088;5.296;2022-08-03T11:00:04;9.9;;;3.3;;
64022;SDS011;50264;52.088;5.296;2022-08-03T11:01:51;15.1;;;3.2;;
64022;SDS011;50264;52.088;5.296;2022-08-03T11:06:13;13.8;;;3.3;;
64022;SDS011;50264;52.088;5.296;2022-08-03T11:10:28;17.61;;;3.5;;
64022;SDS011;50264;52.088;5.296;2022-08-03T11:12:20;11.1;;;3.1;;
64022;SDS011;50264;52.088;5.296;2022-08-03T11:16:00;16.4;;;3.9;;
64022;SDS011;50264;52.088;5.296;2022-08-03T11:17:58;9.1;;;2.8;;
64022;SDS011;50264;52.088;5.296;2022-08-03T11:19:54;12.9;;;3.3;;
64022;SDS011;50264;52.088;5.296;2022-08-03T11:21:57;16.2;;;4.1;;
64022;SDS011;50264;52.088;5.296;2022-08-03T11:23:45;12.0;;;3.2;;
64022;SDS011;50264;52.088;5.296;2022-08-03T11:25:54;21.0;;;3.5;;
64022;SDS011;50264;52.088;5.296;2022-08-03T11:28:11;12.7;;;3.5;;
64022;SDS011;50264;52.088;5.296;2022-08-03T11:30:15;10.6;;;3.2;;
64022;SDS011;50264;52.088;5.296;2022-08-03T11:32:09;10.6;;;3.2;;
64022;SDS011;50264;52.088;5.296;2022-08-03T11:34:02;16.9;;;3.5;;
64022;SDS011;50264;52.088;5.296;2022-08-03T11:35:56;9.4;;;2.7;;
64022;SDS011;50264;52.088;5.296;2022-08-03T11:38:00;15.2;;;3.6;;
64022;SDS011;50264;52.088;5.296;2022-08-03T11:39:50;13.0;;;3.2;;
64022;SDS011;50264;52.088;5.296;2022-08-03T11:41:39;11.5;;;3.1;;
64022;SDS011;50264;52.088;5.296;2022-08-03T11:45:54;11.1;;;3.5;;
64022;SDS011;50264;52.088;5.296;2022-08-03T11:49:30;9.4;;;3.2;;
64022;SDS011;50264;52.088;5.296;2022-08-03T11:51:18;11.4;;;3.3;;
64022;SDS011;50264;52.088;5.296;2022-08-03T11:53:06;11.2;;;3.2;;
64022;SDS011;50264;52.088;5.296;2022-08-03T11:54:52;7.5;;;3.0;;
64022;SDS011;50264;52.088;5.296;2022-08-03T11:56:42;9.71;;;2.9;;
64022;SDS011;50264;52.088;5.296;2022-08-03T11:58:30;14.0;;;3.3;;
64022;SDS011;50264;52.088;5.296;2022-08-03T12:02:07;15.6;;;3.2;;
64022;SDS011;50264;52.088;5.296;2022-08-03T12:03:56;10.5;;;3.3;;
64022;SDS011;50264;52.088;5.296;2022-08-03T12:05:48;9.5;;;2.8;;
64022;SDS011;50264;52.088;5.296;2022-08-03T12:07:36;11.0;;;3.6;;
64022;SDS011;50264;52.088;5.296;2022-08-03T12:09:33;11.0;;;3.6;;
64022;SDS011;50264;52.088;5.296;2022-08-03T12:11:20;16.7;;;3.3;;
64022;SDS011;50264;52.088;5.296;2022-08-03T12:13:08;9.1;;;2.9;;
64022;SDS011;50264;52.088;5.296;2022-08-03T12:16:40;10.9;;;3.0;;
64022;SDS011;50264;52.088;5.296;2022-08-03T12:18:33;10.3;;;3.0;;
64022;SDS011;50264;52.088;5.296;2022-08-03T12:20:20;27.0;;;3.6;;
64022;SDS011;50264;52.088;5.296;2022-08-03T12:22:09;10.5;;;3.2;;